Salonica, Greece
Current Conditions -  °F | °C
As of 4:50 AM on Tuesday 21 Oct 2014 (Local Time) from LGTS Reporting Station
Few Clouds Few Clouds  
Wind Chill: 10°   Ceiling: Unl
Heat Index: 10°   Visibility: 6mi
Dew Point:   Wind: 6mph
Humidity: 94%   Direction: 100°E
Pressure: 30"   Gusts: NA
Location:  40.52°N, 22.97°E
Report Text: LGTS 210150Z 10005KT 9999 FEW030 10/09 Q1016 NOSIG
Loading
Personal Weather Stations






























Interactive Weather Map New forecast layout! Learn more

10-Day Weather Forecast

Advertisements
Track Severe Weather on mobile